Time;durP1;ratioP1;P1;durP2;ratioP2;P2;SDS_P1;SDS_P2;PMS_P1;PMS_P2;Temp;Humidity;BMP_temperature;BMP_pressure;BME280_temperature;BME280_humidity;BME280_pressure;Samples;Min_cycle;Max_cycle;Signal;HPM_P1;HPM_P2
2022/10/13 00:02:05;;;;;;;7.73;3.80;;;;;;;10.94;100.00;96790.59;5039327;28;20211;-81
2022/10/13 00:04:35;;;;;;;5.87;3.30;;;;;;;11.04;100.00;96784.69;5029767;28;20222;-82
2022/10/13 00:07:02;;;;;;;5.83;3.37;;;;;;;11.04;100.00;96783.84;5025242;28;20215;-80
2022/10/13 00:09:29;;;;;;;7.73;3.37;;;;;;;11.06;100.00;96785.25;5043892;28;20222;-81
2022/10/13 00:11:57;;;;;;;5.87;3.30;;;;;;;11.06;100.00;96781.75;5031026;28;20214;-81
2022/10/13 00:14:26;;;;;;;10.73;3.20;;;;;;;11.03;100.00;96774.91;5025517;28;20207;-81
2022/10/13 00:16:53;;;;;;;4.80;3.20;;;;;;;11.09;100.00;96774.03;5037478;28;20253;-80
2022/10/13 00:19:20;;;;;;;5.80;2.97;;;;;;;11.04;100.00;96763.06;5026035;28;20276;-81
2022/10/13 00:21:47;;;;;;;7.50;3.10;;;;;;;11.05;100.00;96774.72;5023250;28;20222;-81
2022/10/13 00:24:14;;;;;;;3.87;2.30;;;;;;;11.08;100.00;96785.88;5023437;28;20245;-81
2022/10/13 00:26:41;;;;;;;5.83;3.00;;;;;;;11.09;100.00;96787.53;5027334;28;20310;-81
2022/10/13 00:29:19;;;;;;;5.87;2.83;;;;;;;11.14;100.00;96790.41;5044622;28;20210;-81
2022/10/13 00:31:48;;;;;;;11.40;3.20;;;;;;;11.18;100.00;96797.00;5040115;28;20210;-81
2022/10/13 00:34:14;;;;;;;6.30;2.67;;;;;;;11.12;100.00;96791.69;5027143;28;20210;-81
2022/10/13 00:36:42;;;;;;;8.47;2.90;;;;;;;11.20;100.00;96811.13;5028070;28;20215;-81
2022/10/13 00:39:09;;;;;;;9.27;3.10;;;;;;;11.13;100.00;96809.56;5025671;28;20211;-81
2022/10/13 00:41:37;;;;;;;8.30;3.03;;;;;;;11.11;100.00;96809.78;5025076;28;20227;-81
2022/10/13 00:44:06;;;;;;;4.43;3.20;;;;;;;11.10;100.00;96813.50;5023731;28;20198;-81
2022/10/13 00:46:35;;;;;;;5.47;3.33;;;;;;;11.02;100.00;96819.19;5024302;28;20234;-81
2022/10/13 00:49:08;;;;;;;6.77;3.77;;;;;;;10.92;100.00;96808.06;5024728;28;20207;-81
2022/10/13 00:51:40;;;;;;;8.33;3.90;;;;;;;10.90;100.00;96812.84;5025095;28;20190;-81
2022/10/13 00:54:11;;;;;;;8.47;3.50;;;;;;;11.00;100.00;96824.00;5027773;28;20203;-81
2022/10/13 00:56:41;;;;;;;9.17;3.97;;;;;;;10.90;100.00;96812.84;5025735;28;20218;-81
2022/10/13 00:59:17;;;;;;;8.53;4.10;;;;;;;10.88;100.00;96825.78;5029709;28;20317;-81
2022/10/13 01:01:44;;;;;;;5.13;3.10;;;;;;;10.74;100.00;96821.50;5025073;28;20218;-81
2022/10/13 01:04:13;;;;;;;6.20;3.30;;;;;;;10.74;100.00;96840.41;5027332;28;20213;-81
2022/10/13 01:06:41;;;;;;;10.30;3.87;;;;;;;10.66;100.00;96819.06;5026649;28;20207;-81
2022/10/13 01:09:08;;;;;;;10.00;4.03;;;;;;;10.72;100.00;96824.44;5028493;28;20195;-81
2022/10/13 01:11:49;;;;;;;4.20;3.17;;;;;;;10.79;100.00;96837.91;5028932;28;20230;-81
2022/10/13 01:14:28;;;;;;;5.83;2.77;;;;;;;10.78;100.00;96847.88;5026255;28;20264;-81
2022/10/13 01:17:05;;;;;;;3.77;3.20;;;;;;;10.79;100.00;96844.13;5027244;28;20294;-81
2022/10/13 01:20:16;;;;;;;6.23;3.00;;;;;;;10.73;100.00;96831.47;5026470;28;20242;-81
2022/10/13 01:22:55;;;;;;;8.30;3.20;;;;;;;10.75;100.00;96833.97;5026880;28;20218;-80
2022/10/13 01:25:47;;;;;;;6.73;3.63;;;;;;;10.62;100.00;96821.41;5026956;28;20319;-81
2022/10/13 01:28:32;;;;;;;7.97;3.27;;;;;;;10.48;100.00;96822.53;5027571;28;20210;-81
2022/10/13 01:31:07;;;;;;;7.87;3.50;;;;;;;10.50;100.00;96812.34;5026077;28;20199;-81
2022/10/13 01:33:42;;;;;;;3.87;3.10;;;;;;;10.53;100.00;96818.16;5015857;28;20195;-81
2022/10/13 01:36:18;;;;;;;8.47;3.40;;;;;;;10.49;100.00;96814.22;5040518;28;20210;-80
2022/10/13 01:38:53;;;;;;;8.07;3.50;;;;;;;10.46;100.00;96809.25;5023521;28;20253;-81
2022/10/13 01:41:26;;;;;;;6.57;3.13;;;;;;;10.40;100.00;96793.91;5016824;28;20221;-80
2022/10/13 01:44:00;;;;;;;5.23;3.30;;;;;;;10.33;100.00;96792.31;5023459;28;20207;-81
2022/10/13 01:46:33;;;;;;;6.53;3.00;;;;;;;10.35;100.00;96793.75;5024518;28;20210;-80
2022/10/13 01:49:04;;;;;;;6.63;3.23;;;;;;;10.29;100.00;96781.16;5023839;28;20242;-80
2022/10/13 01:51:33;;;;;;;4.60;3.30;;;;;;;10.17;100.00;96793.63;5019239;28;20305;-81
2022/10/13 01:54:00;;;;;;;5.93;3.20;;;;;;;10.14;100.00;96786.78;5027144;28;20194;-80
2022/10/13 01:56:27;;;;;;;5.67;3.00;;;;;;;10.23;100.00;96782.81;5027301;28;20209;-81
2022/10/13 01:58:57;;;;;;;6.53;2.77;;;;;;;10.26;100.00;96781.56;5025897;28;20198;-81
2022/10/13 02:01:47;;;;;;;4.00;2.83;;;;;;;10.33;100.00;96779.66;5027754;28;20218;-81
2022/10/13 02:04:26;;;;;;;8.03;3.00;;;;;;;10.37;100.00;96783.59;5028898;28;20210;-81
2022/10/13 02:07:02;;;;;;;9.13;2.70;;;;;;;10.37;100.00;96772.78;5027204;28;20257;-80
2022/10/13 02:09:41;;;;;;;8.27;3.17;;;;;;;10.40;100.00;96780.44;5023277;28;20195;-80
2022/10/13 02:12:12;;;;;;;5.90;2.70;;;;;;;10.42;100.00;96772.09;5023969;28;20242;-81
2022/10/13 02:14:42;;;;;;;5.37;2.50;;;;;;;10.40;100.00;96772.31;5019504;28;20296;-81
2022/10/13 02:17:11;;;;;;;6.40;2.90;;;;;;;10.33;100.00;96768.03;5019380;28;20203;-80
2022/10/13 02:19:40;;;;;;;3.70;2.53;;;;;;;10.29;100.00;96770.34;5023989;28;20262;-81
2022/10/13 02:22:09;;;;;;;5.30;2.80;;;;;;;10.35;100.00;96772.16;5027829;28;20325;-80
2022/10/13 02:24:37;;;;;;;4.87;2.70;;;;;;;10.37;100.00;96771.94;5026052;28;20203;-81
2022/10/13 02:27:06;;;;;;;5.37;2.77;;;;;;;10.35;100.00;96771.34;5025430;28;20199;-81
2022/10/13 02:29:33;;;;;;;5.10;2.20;;;;;;;10.42;100.00;96781.03;5021704;28;20210;-81
2022/10/13 02:32:00;;;;;;;3.63;2.73;;;;;;;10.37;100.00;96783.59;5021809;28;20213;-81
2022/10/13 02:34:30;;;;;;;3.80;2.60;;;;;;;10.42;100.00;96786.44;5031864;28;20214;-81
2022/10/13 02:36:57;;;;;;;7.23;2.60;;;;;;;10.27;100.00;96772.44;5015782;28;20297;-81
2022/10/13 02:39:24;;;;;;;10.23;2.63;;;;;;;10.34;100.00;96780.47;5019119;28;20272;-81
2022/10/13 02:41:52;;;;;;;3.37;2.40;;;;;;;10.20;100.00;96771.66;5015154;28;20357;-81
2022/10/13 02:44:20;;;;;;;4.57;2.87;;;;;;;10.18;100.00;96765.63;5017927;28;20210;-81
2022/10/13 02:46:47;;;;;;;4.03;2.40;;;;;;;10.29;100.00;96781.16;5019463;28;20203;-81
2022/10/13 02:49:14;;;;;;;7.57;2.67;;;;;;;10.24;100.00;96762.06;5017449;28;20203;-81
2022/10/13 02:51:43;;;;;;;4.43;3.13;;;;;;;10.27;100.00;96777.00;5021364;28;20866;-81
2022/10/13 02:54:10;;;;;;;4.07;2.73;;;;;;;10.15;100.00;96763.34;5020408;28;20199;-81
2022/10/13 02:56:37;;;;;;;4.90;2.90;;;;;;;10.14;100.00;96773.28;5018762;28;20211;-81
2022/10/13 02:59:04;;;;;;;8.47;2.80;;;;;;;10.18;100.00;96787.22;5019364;28;20218;-81
2022/10/13 03:01:31;;;;;;;5.60;2.90;;;;;;;10.18;100.00;96785.34;5017657;28;20223;-81
2022/10/13 03:03:59;;;;;;;4.60;2.60;;;;;;;10.11;100.00;96784.53;5022346;28;20751;-81
2022/10/13 03:06:25;;;;;;;4.93;2.73;;;;;;;10.18;100.00;96795.31;5018161;28;20203;-81
2022/10/13 03:08:54;;;;;;;3.83;2.50;;;;;;;10.12;100.00;96799.66;5020790;28;20238;-81
2022/10/13 03:11:21;;;;;;;3.53;3.00;;;;;;;10.10;100.00;96799.06;5021314;28;20226;-81
2022/10/13 03:13:48;;;;;;;5.27;3.20;;;;;;;10.05;100.00;96789.94;5020686;28;20203;-81
2022/10/13 03:16:15;;;;;;;12.87;5.70;;;;;;;10.07;100.00;96804.06;5015131;28;20199;-81
2022/10/13 03:18:42;;;;;;;10.50;7.57;;;;;;;10.05;100.00;96798.03;5039232;28;20207;-81
2022/10/13 03:21:11;;;;;;;11.50;7.97;;;;;;;10.04;100.00;96802.63;5033660;28;20208;-81
2022/10/13 03:23:39;;;;;;;9.90;5.33;;;;;;;9.99;100.00;96798.91;5030284;28;20205;-80
2022/10/13 03:26:07;;;;;;;6.33;3.47;;;;;;;10.06;100.00;96802.41;5027275;28;20214;-81
2022/10/13 03:28:34;;;;;;;4.67;3.10;;;;;;;10.04;100.00;96805.31;5027041;28;20200;-81
2022/10/13 03:31:02;;;;;;;4.97;4.23;;;;;;;9.95;100.00;96801.25;5028162;28;20213;-81
2022/10/13 03:33:29;;;;;;;7.07;3.93;;;;;;;9.92;100.00;96801.66;5030695;28;20201;-80
2022/10/13 03:35:59;;;;;;;8.77;4.20;;;;;;;9.90;100.00;96802.91;5027680;28;20274;-80
2022/10/13 03:38:26;;;;;;;6.77;5.20;;;;;;;9.92;100.00;96808.91;5019749;28;20191;-81
2022/10/13 03:40:53;;;;;;;9.50;4.90;;;;;;;9.86;100.00;96810.63;5036612;28;20231;-80
2022/10/13 03:43:22;;;;;;;8.13;4.80;;;;;;;9.88;100.00;96817.44;5020252;28;20223;-80
2022/10/13 03:45:56;;;;;;;7.33;5.50;;;;;;;9.85;100.00;96812.47;5031616;28;20203;-80
2022/10/13 03:48:23;;;;;;;7.20;4.60;;;;;;;9.81;100.00;96813.94;5028999;28;20210;-81
2022/10/13 03:50:50;;;;;;;8.27;5.83;;;;;;;9.81;100.00;96819.34;5025868;28;20219;-80
2022/10/13 03:53:17;;;;;;;8.23;5.10;;;;;;;9.72;100.00;96817.09;5028374;28;20210;-81
2022/10/13 03:55:50;;;;;;;6.50;4.80;;;;;;;9.70;100.00;96825.38;5032166;28;20214;-81
2022/10/13 03:58:18;;;;;;;6.30;3.50;;;;;;;9.75;100.00;96835.53;5032218;28;20203;-81
2022/10/13 04:00:47;;;;;;;9.27;3.67;;;;;;;9.70;100.00;96841.56;5029098;28;20213;-81
2022/10/13 04:03:14;;;;;;;7.37;4.73;;;;;;;9.72;100.00;96838.66;5025178;28;20219;-81
2022/10/13 04:05:41;;;;;;;6.80;4.80;;;;;;;9.73;100.00;96854.63;5027009;28;20211;-80
2022/10/13 04:08:09;;;;;;;6.70;3.57;;;;;;;9.76;100.00;96854.22;5033208;28;20310;-81
2022/10/13 04:10:36;;;;;;;8.47;4.37;;;;;;;9.66;100.00;96845.75;5021932;28;20219;-81
2022/10/13 04:13:03;;;;;;;7.70;4.00;;;;;;;9.65;100.00;96844.06;5017017;28;20211;-80
2022/10/13 04:15:30;;;;;;;6.20;3.50;;;;;;;9.58;100.00;96832.50;5036822;28;20199;-80
2022/10/13 04:17:58;;;;;;;6.83;5.50;;;;;;;9.57;100.00;96841.63;5018366;28;20234;-80
2022/10/13 04:20:26;;;;;;;9.97;4.70;;;;;;;9.53;100.00;96829.59;5032802;28;20238;-81
2022/10/13 04:22:53;;;;;;;5.07;3.37;;;;;;;9.61;100.00;96826.66;5020162;28;20230;-81
2022/10/13 04:25:20;;;;;;;4.90;2.97;;;;;;;9.60;100.00;96825.03;5013349;28;20218;-81
2022/10/13 04:27:49;;;;;;;4.17;2.83;;;;;;;9.56;100.00;96822.94;5015520;28;20218;-81
2022/10/13 04:30:16;;;;;;;5.77;3.33;;;;;;;9.46;100.00;96828.78;5016783;28;20210;-81
2022/10/13 04:32:43;;;;;;;8.80;3.17;;;;;;;9.34;100.00;96819.72;5015777;28;20235;-81
2022/10/13 04:35:13;;;;;;;6.37;2.93;;;;;;;9.35;100.00;96826.75;5018180;28;20261;-81
2022/10/13 04:37:40;;;;;;;5.57;3.07;;;;;;;9.28;100.00;96815.13;5021114;28;20221;-81
2022/10/13 04:40:10;;;;;;;4.60;3.00;;;;;;;9.28;100.00;96821.34;5033286;28;20281;-81
2022/10/13 04:42:37;;;;;;;11.43;3.57;;;;;;;9.19;100.00;96803.75;5015261;28;20261;-81
2022/10/13 04:45:05;;;;;;;6.83;3.37;;;;;;;9.39;100.00;96822.59;5012237;28;20290;-81
2022/10/13 04:47:34;;;;;;;9.30;2.87;;;;;;;9.44;100.00;96820.91;5029770;28;20207;-81
2022/10/13 04:50:01;;;;;;;5.03;3.60;;;;;;;9.52;100.00;96821.72;5022634;28;20215;-81
2022/10/13 04:52:30;;;;;;;5.47;3.10;;;;;;;9.51;100.00;96812.00;5018122;28;20211;-81
2022/10/13 04:54:58;;;;;;;5.70;3.10;;;;;;;9.56;100.00;96810.31;5015800;28;20206;-81
2022/10/13 04:57:25;;;;;;;8.93;2.97;;;;;;;9.47;100.00;96800.78;5018624;28;20217;-81
2022/10/13 04:59:52;;;;;;;7.07;3.30;;;;;;;9.46;100.00;96799.13;5038305;28;20226;-81
2022/10/13 05:02:19;;;;;;;4.17;2.70;;;;;;;9.43;100.00;96802.28;5019033;28;20486;-81
2022/10/13 05:04:46;;;;;;;9.77;4.13;;;;;;;9.44;100.00;96803.94;5017180;28;20303;-81
2022/10/13 05:07:13;;;;;;;10.10;4.00;;;;;;;9.49;100.00;96809.50;5018523;28;20191;-81
2022/10/13 05:09:43;;;;;;;8.23;2.60;;;;;;;9.59;100.00;96814.44;5019051;28;20230;-81
2022/10/13 05:12:13;;;;;;;7.77;2.77;;;;;;;9.63;100.00;96807.56;5016938;28;20218;-81
2022/10/13 05:14:40;;;;;;;5.13;2.67;;;;;;;9.63;100.00;96792.22;5017549;28;20199;-81
2022/10/13 05:17:07;;;;;;;4.63;2.73;;;;;;;9.66;100.00;96774.81;5023526;28;20205;-81
2022/10/13 05:19:34;;;;;;;4.20;2.47;;;;;;;9.73;100.00;96779.13;5028681;28;20243;-81
2022/10/13 05:22:02;;;;;;;4.33;2.73;;;;;;;9.72;100.00;96782.84;5018877;28;20289;-81
2022/10/13 05:24:35;;;;;;;3.17;2.63;;;;;;;9.75;100.00;96787.84;5014077;28;20212;-81
2022/10/13 05:27:06;;;;;;;7.37;2.53;;;;;;;9.69;100.00;96775.22;5015525;28;20284;-81
2022/10/13 05:29:33;;;;;;;4.60;2.50;;;;;;;9.65;100.00;96779.38;5018411;28;20206;-81
2022/10/13 05:32:00;;;;;;;5.13;2.60;;;;;;;9.70;100.00;96792.19;5025364;28;20210;-80
2022/10/13 05:34:27;;;;;;;6.37;2.90;;;;;;;9.65;100.00;96787.47;5017162;28;20265;-81
2022/10/13 05:36:54;;;;;;;3.27;2.80;;;;;;;9.69;100.00;96785.16;5027706;28;20195;-80
2022/10/13 05:39:21;;;;;;;4.10;3.10;;;;;;;9.70;100.00;96778.72;5026885;28;20202;-80
2022/10/13 05:41:48;;;;;;;5.37;3.30;;;;;;;9.68;100.00;96781.66;5024236;28;20205;-80
2022/10/13 05:44:23;;;;;;;6.17;3.23;;;;;;;9.68;100.00;96773.56;5022329;28;20202;-81
2022/10/13 05:46:53;;;;;;;6.20;3.20;;;;;;;9.83;100.00;96776.81;5024506;28;20272;-81
2022/10/13 05:49:21;;;;;;;5.90;2.40;;;;;;;9.94;100.00;96779.88;5024752;28;20203;-81
2022/10/13 05:51:50;;;;;;;2.97;2.30;;;;;;;9.88;100.00;96781.53;5028316;28;20198;-81
2022/10/13 05:54:21;;;;;;;4.13;2.40;;;;;;;9.79;100.00;96783.66;5026471;28;20211;-80
2022/10/13 05:56:53;;;;;;;4.00;2.60;;;;;;;9.96;100.00;96775.06;5027291;28;20234;-80
2022/10/13 05:59:23;;;;;;;4.17;2.17;;;;;;;9.96;100.00;96765.09;5016651;28;20211;-80
2022/10/13 06:01:51;;;;;;;4.67;2.57;;;;;;;9.95;100.00;96762.63;5040816;28;20210;-81
2022/10/13 06:04:22;;;;;;;5.50;2.27;;;;;;;9.96;100.00;96766.97;5026970;28;20293;-81
2022/10/13 06:06:49;;;;;;;4.33;2.60;;;;;;;10.02;100.00;96763.44;5027713;28;20264;-81
2022/10/13 06:09:17;;;;;;;4.97;2.70;;;;;;;10.04;100.00;96762.16;5041554;28;20210;-81
2022/10/13 06:11:44;;;;;;;8.60;2.73;;;;;;;10.04;100.00;96762.16;5023395;28;20214;-81
2022/10/13 06:14:11;;;;;;;7.33;2.60;;;;;;;10.15;100.00;96764.16;5041541;28;20274;-81
2022/10/13 06:16:41;;;;;;;10.07;4.67;;;;;;;10.21;100.00;96762.47;5028325;28;20470;-81
2022/10/13 06:19:08;;;;;;;5.17;3.40;;;;;;;10.25;100.00;96752.91;5032242;28;20268;-80
2022/10/13 06:21:35;;;;;;;2.80;2.33;;;;;;;10.30;100.00;96753.09;5024160;28;20204;-80
2022/10/13 06:24:03;;;;;;;6.90;2.90;;;;;;;10.34;100.00;96748.09;5026664;28;20218;-81
2022/10/13 06:26:30;;;;;;;3.20;2.40;;;;;;;10.42;100.00;96764.00;5030066;28;20202;-81
2022/10/13 06:28:57;;;;;;;5.50;2.40;;;;;;;10.48;100.00;96772.06;5029388;28;20199;-81
2022/10/13 06:31:26;;;;;;;5.53;2.13;;;;;;;10.50;100.00;96767.28;5025565;28;20207;-80
2022/10/13 06:33:54;;;;;;;5.00;2.13;;;;;;;10.47;100.00;96762.28;5028922;28;20207;-80
2022/10/13 06:36:21;;;;;;;3.30;2.60;;;;;;;10.51;100.00;96760.81;5028184;28;20198;-81
2022/10/13 06:38:48;;;;;;;4.77;2.53;;;;;;;10.53;100.00;96761.44;5027669;28;20214;-81
2022/10/13 06:41:18;;;;;;;6.37;2.10;;;;;;;10.53;100.00;96761.44;5024768;28;20329;-81
2022/10/13 06:43:45;;;;;;;3.53;1.97;;;;;;;10.63;100.00;96757.44;5044362;28;20223;-81
2022/10/13 06:46:13;;;;;;;2.97;2.30;;;;;;;10.69;100.00;96764.63;5031246;28;20203;-81
2022/10/13 06:48:40;;;;;;;6.47;2.30;;;;;;;10.58;100.00;96745.41;5025815;28;20211;-81
2022/10/13 06:51:10;;;;;;;4.93;2.00;;;;;;;10.69;100.00;96767.34;5025768;28;20203;-80
2022/10/13 06:53:38;;;;;;;3.40;2.33;;;;;;;10.67;100.00;96755.91;5027755;28;20199;-81
2022/10/13 06:56:07;;;;;;;8.37;2.53;;;;;;;10.69;100.00;96760.06;5023122;28;20203;-81
2022/10/13 06:58:34;;;;;;;4.53;2.40;;;;;;;10.70;100.00;96750.91;5026705;28;20280;-81
2022/10/13 07:01:01;;;;;;;6.17;2.67;;;;;;;10.74;100.00;96768.31;5026590;28;20199;-81
2022/10/13 07:03:29;;;;;;;4.40;2.40;;;;;;;10.75;100.00;96769.16;5027031;28;20225;-81
2022/10/13 07:06:00;;;;;;;6.67;2.60;;;;;;;10.70;100.00;96766.28;5025994;28;20202;-81
2022/10/13 07:08:29;;;;;;;4.73;3.10;;;;;;;10.70;100.00;96760.88;5018809;28;20268;-81
2022/10/13 07:10:56;;;;;;;6.87;2.80;;;;;;;10.65;100.00;96753.44;5027444;28;20238;-81
2022/10/13 07:13:23;;;;;;;5.97;2.90;;;;;;;10.75;100.00;96763.75;5031221;28;20210;-81
2022/10/13 07:15:51;;;;;;;9.33;4.30;;;;;;;10.79;100.00;96756.88;5030448;28;20209;-81
2022/10/13 07:18:17;;;;;;;8.13;3.33;;;;;;;10.82;100.00;96762.63;5029536;28;20349;-81
2022/10/13 07:20:45;;;;;;;5.97;3.40;;;;;;;10.79;100.00;96759.56;5038105;28;20234;-81
2022/10/13 07:23:12;;;;;;;7.50;3.33;;;;;;;10.83;100.00;96758.88;5032801;28;20211;-81
2022/10/13 07:25:40;;;;;;;7.37;3.83;;;;;;;10.87;100.00;96761.97;5020283;28;20317;-81
2022/10/13 07:28:08;;;;;;;11.50;3.50;;;;;;;10.98;100.00;96764.75;5008452;28;20234;-81
2022/10/13 07:30:38;;;;;;;4.67;3.30;;;;;;;11.08;100.00;96760.72;5031182;28;20211;-81
2022/10/13 07:33:05;;;;;;;8.20;3.60;;;;;;;11.16;100.00;96750.44;5051551;28;20202;-81
2022/10/13 07:35:32;;;;;;;7.33;3.33;;;;;;;11.17;100.00;96748.56;5051546;28;20206;-81
2022/10/13 07:37:59;;;;;;;5.57;3.63;;;;;;;11.25;100.00;96743.69;5057677;28;20197;-81
2022/10/13 07:40:26;;;;;;;5.23;3.47;;;;;;;11.32;100.00;96752.56;5043939;28;20198;-80
2022/10/13 07:42:56;;;;;;;4.83;3.50;;;;;;;11.42;100.00;96751.22;5045918;28;20222;-81
2022/10/13 07:45:23;;;;;;;4.73;3.57;;;;;;;11.35;100.00;96730.50;5060685;28;20197;-81
2022/10/13 07:47:50;;;;;;;5.00;3.60;;;;;;;11.38;100.00;96745.44;5055526;28;20208;-81
2022/10/13 07:50:18;;;;;;;3.97;3.30;;;;;;;11.46;100.00;96733.50;5038228;28;20210;-81
2022/10/13 07:52:45;;;;;;;5.20;3.10;;;;;;;11.55;100.00;96741.09;5045208;28;20205;-81
2022/10/13 07:55:13;;;;;;;4.70;3.17;;;;;;;11.52;100.00;96732.59;5047939;28;20233;-81
2022/10/13 07:57:40;;;;;;;2.80;2.50;;;;;;;11.69;100.00;96745.25;5041632;28;20190;-81
2022/10/13 08:00:19;;;;;;;5.23;2.90;;;;;;;11.71;100.00;96734.22;5030859;28;20263;-81
2022/10/13 08:02:49;;;;;;;6.87;2.77;;;;;;;11.71;100.00;96731.50;5030247;28;20230;-81
2022/10/13 08:05:17;;;;;;;5.30;2.57;;;;;;;11.76;100.00;96734.38;5033740;28;20206;-82
2022/10/13 08:07:44;;;;;;;8.07;2.70;;;;;;;11.81;100.00;96745.38;5036406;28;20202;-82
2022/10/13 08:10:11;;;;;;;5.10;2.27;;;;;;;11.89;100.00;96733.41;5053393;28;20222;-82
2022/10/13 08:12:38;;;;;;;5.57;2.67;;;;;;;12.00;100.00;96728.00;5046794;28;20198;-82
2022/10/13 08:15:07;;;;;;;2.97;1.90;;;;;;;12.10;100.00;96725.56;5043803;28;20203;-82
2022/10/13 08:17:36;;;;;;;6.10;2.40;;;;;;;12.24;100.00;96728.09;5029365;28;20200;-83
2022/10/13 08:20:04;;;;;;;4.70;2.30;;;;;;;12.35;100.00;96728.13;5021734;28;20234;-82
2022/10/13 08:22:33;;;;;;;5.37;2.40;;;;;;;12.37;100.00;96715.19;5046957;28;20198;-82
2022/10/13 08:25:01;;;;;;;4.77;2.83;;;;;;;12.51;100.00;96716.59;5033832;28;20230;-82
2022/10/13 08:27:30;;;;;;;4.70;2.50;;;;;;;12.48;100.00;96716.25;5031284;28;20256;-82
2022/10/13 08:29:57;;;;;;;5.00;2.53;;;;;;;12.52;100.00;96723.69;5030999;28;20216;-82
2022/10/13 08:32:24;;;;;;;3.37;2.67;;;;;;;12.56;100.00;96712.38;5021758;28;20206;-82
2022/10/13 08:34:53;;;;;;;3.90;2.93;;;;;;;12.55;100.00;96725.09;5032496;28;20230;-82
2022/10/13 08:37:20;;;;;;;6.43;3.23;;;;;;;12.51;100.00;96704.94;5035782;28;20199;-82
2022/10/13 08:39:48;;;;;;;4.50;3.00;;;;;;;12.56;100.00;96707.78;5048056;28;20301;-82
2022/10/13 08:42:18;;;;;;;5.73;3.10;;;;;;;12.73;100.00;96716.06;5037545;28;20198;-82
2022/10/13 08:44:48;;;;;;;5.30;2.70;;;;;;;12.79;100.00;96715.94;5030472;28;20227;-82
2022/10/13 08:47:29;;;;;;;8.00;2.90;;;;;;;12.88;100.00;96710.97;5030177;28;20218;-82
2022/10/13 08:50:01;;;;;;;8.67;2.80;;;;;;;13.00;100.00;96706.41;5034420;28;20245;-82
2022/10/13 08:52:41;;;;;;;4.60;2.40;;;;;;;13.16;100.00;96696.75;5028650;28;20226;-82
2022/10/13 08:55:16;;;;;;;7.77;2.83;;;;;;;13.40;100.00;96698.34;5054724;28;20222;-82
2022/10/13 08:57:44;;;;;;;5.83;2.70;;;;;;;13.60;100.00;96704.19;5031379;28;20222;-82
2022/10/13 09:00:13;;;;;;;5.13;2.60;;;;;;;13.66;100.00;96698.88;5036335;28;20197;-82
2022/10/13 09:02:43;;;;;;;5.73;2.27;;;;;;;13.73;100.00;96692.22;5037109;28;20217;-82
2022/10/13 09:05:25;;;;;;;8.50;3.07;;;;;;;13.74;100.00;96682.19;5018859;28;20215;-82
2022/10/13 09:07:56;;;;;;;5.23;2.40;;;;;;;13.80;100.00;96675.78;5049194;28;20217;-82
2022/10/13 09:10:25;;;;;;;6.27;2.87;;;;;;;13.85;100.00;96674.03;5018118;28;20217;-82
2022/10/13 09:12:52;;;;;;;5.80;2.47;;;;;;;13.89;100.00;96677.06;5020495;28;20233;-82
2022/10/13 09:15:20;;;;;;;4.50;2.50;;;;;;;13.91;100.00;96672.22;5034407;28;20294;-83
2022/10/13 09:18:09;;;;;;;5.43;2.40;;;;;;;13.88;100.00;96684.38;5024951;28;20221;-82
2022/10/13 09:20:38;;;;;;;2.80;2.27;;;;;;;13.85;100.00;96681.34;5041814;28;20273;-83
2022/10/13 09:23:18;;;;;;;5.47;2.80;;;;;;;13.89;100.00;96686.03;5042081;28;20206;-82
2022/10/13 09:25:48;;;;;;;5.40;2.63;;;;;;;13.77;100.00;96684.44;5054598;28;20281;-82
2022/10/13 09:28:20;;;;;;;3.60;2.40;;;;;;;13.79;100.00;96696.69;5053284;28;20222;-83
2022/10/13 09:30:47;;;;;;;9.57;4.80;;;;;;;13.78;100.00;96697.75;5034211;28;20201;-82
2022/10/13 09:33:21;;;;;;;8.53;3.17;;;;;;;13.87;100.00;96693.56;5025539;28;20213;-83
2022/10/13 09:36:06;;;;;;;5.00;2.43;;;;;;;13.87;100.00;96690.88;5048087;28;20202;-83
2022/10/13 09:38:35;;;;;;;6.97;2.80;;;;;;;13.95;100.00;96679.63;5046837;28;20198;-83
2022/10/13 09:41:05;;;;;;;7.27;2.97;;;;;;;14.02;100.00;96676.78;5033844;28;20217;-83
2022/10/13 09:43:35;;;;;;;10.87;3.50;;;;;;;14.17;100.00;96685.19;5051627;28;20225;-83
2022/10/13 09:46:11;;;;;;;7.43;3.63;;;;;;;14.28;100.00;96687.03;5031294;28;20297;-83
2022/10/13 09:48:44;;;;;;;7.17;3.60;;;;;;;14.35;100.00;96690.41;5034822;28;20206;-83
2022/10/13 09:51:31;;;;;;;8.43;3.33;;;;;;;14.39;100.00;96697.00;5030764;28;20210;-82
2022/10/13 09:54:00;;;;;;;11.03;3.50;;;;;;;14.43;100.00;96689.19;5042398;28;20294;-82
2022/10/13 09:56:33;;;;;;;8.07;2.97;;;;;;;14.54;100.00;96696.47;5048372;28;20206;-83
2022/10/13 09:59:11;;;;;;;6.93;3.50;;;;;;;14.52;100.00;96687.72;5042612;28;20197;-83
2022/10/13 10:01:43;;;;;;;6.97;3.40;;;;;;;14.58;100.00;96699.47;5034462;28;20221;-83
2022/10/13 10:04:15;;;;;;;3.90;3.33;;;;;;;14.67;100.00;96692.56;5042091;28;20245;-82
2022/10/13 10:06:45;;;;;;;6.63;3.70;;;;;;;14.73;100.00;96703.28;5046061;28;20206;-83
2022/10/13 10:09:26;;;;;;;5.80;3.13;;;;;;;14.74;100.00;96714.97;5029412;28;20198;-82
2022/10/13 10:11:55;;;;;;;6.43;3.00;;;;;;;14.82;100.00;96711.84;5028626;28;20244;-83
2022/10/13 10:14:26;;;;;;;5.70;3.37;;;;;;;14.98;100.00;96704.72;5041987;28;20282;-82
2022/10/13 10:17:03;;;;;;;6.90;3.00;;;;;;;15.04;100.00;96712.72;5033710;28;20202;-83
2022/10/13 10:19:44;;;;;;;3.90;3.03;;;;;;;15.03;100.00;96716.53;5046261;28;20242;-83
2022/10/13 10:22:22;;;;;;;6.37;3.80;;;;;;;15.10;100.00;96714.44;5017395;28;20256;-83
2022/10/13 10:24:56;;;;;;;5.47;2.83;;;;;;;15.17;100.00;96702.56;5041879;28;20233;-83
2022/10/13 10:27:29;;;;;;;5.23;2.60;;;;;;;15.30;100.00;96699.50;5026936;28;20201;-83
2022/10/13 10:30:02;;;;;;;6.80;2.53;;;;;;;15.39;100.00;96714.31;5049829;28;20276;-83
2022/10/13 10:32:40;;;;;;;4.80;3.13;;;;;;;15.52;100.00;96708.47;5034129;28;20203;-83
2022/10/13 10:35:14;;;;;;;5.50;2.77;;;;;;;15.65;100.00;96697.25;5041592;28;20198;-83
2022/10/13 10:38:04;;;;;;;3.73;2.80;;;;;;;15.64;100.00;96687.44;5048790;28;20252;-83
2022/10/13 10:40:40;;;;;;;6.03;2.73;;;;;;;15.73;100.00;96696.81;5031307;28;20353;-83
2022/10/13 10:43:28;;;;;;;5.40;2.50;;;;;;;15.80;100.00;96692.00;5018260;28;20205;-83
2022/10/13 10:45:58;;;;;;;4.07;2.33;;;;;;;15.98;100.00;96696.28;5040482;28;20205;-83
2022/10/13 10:48:30;;;;;;;2.97;2.67;;;;;;;16.06;100.00;96690.38;5029515;28;20199;-83
2022/10/13 10:50:59;;;;;;;3.97;3.00;;;;;;;16.10;100.00;96693.38;5047669;28;20201;-83
2022/10/13 10:53:35;;;;;;;5.20;3.20;;;;;;;16.05;100.00;96687.91;5047210;28;20221;-83
2022/10/13 10:56:12;;;;;;;5.13;2.70;;;;;;;16.04;100.00;96684.34;5044713;28;20209;-83
2022/10/13 10:58:45;;;;;;;3.87;2.53;;;;;;;16.07;100.00;96685.75;5054522;28;20265;-83
2022/10/13 11:01:34;;;;;;;5.90;2.70;;;;;;;16.04;100.00;96675.34;5034662;28;20256;-83
2022/10/13 11:04:31;;;;;;;4.87;2.50;;;;;;;16.00;100.00;96685.94;5051192;28;20283;-83
2022/10/13 11:07:00;;;;;;;5.30;2.87;;;;;;;15.85;100.00;96672.97;5035486;28;20267;-83
2022/10/13 11:10:16;;;;;;;3.80;3.00;;;;;;;15.89;100.00;96659.69;5047580;28;20206;-83
2022/10/13 11:13:24;;;;;;;5.10;2.67;;;;;;;15.94;100.00;96653.47;5036345;28;20217;-82
2022/10/13 11:15:51;;;;;;;7.23;2.67;;;;;;;16.03;100.00;96660.09;5036951;28;20211;-82
2022/10/13 11:18:58;;;;;;;5.67;2.80;;;;;;;16.10;100.00;96669.69;5040420;28;20292;-83
2022/10/13 11:22:11;;;;;;;4.97;3.07;;;;;;;16.05;100.00;96666.94;5032360;28;20292;-83
2022/10/13 11:25:10;;;;;;;5.50;2.83;;;;;;;15.89;100.00;96660.50;5042983;28;20221;-83
2022/10/13 11:27:41;;;;;;;7.13;2.80;;;;;;;15.81;100.00;96660.16;5020546;28;20226;-83
2022/10/13 11:30:48;;;;;;;6.63;3.07;;;;;;;15.80;100.00;96659.31;5035984;28;20203;-83
2022/10/13 11:33:36;;;;;;;4.33;2.40;;;;;;;15.83;100.00;96652.53;5044936;28;20261;-83
2022/10/13 11:36:54;;;;;;;6.97;2.67;;;;;;;15.97;100.00;96644.78;5034651;28;20257;-83
2022/10/13 11:40:06;;;;;;;3.87;2.90;;;;;;;16.11;100.00;96648.72;4987598;28;20222;-83
2022/10/13 11:43:06;;;;;;;5.90;3.27;;;;;;;16.18;100.00;96654.78;5044332;28;20206;-83
2022/10/13 11:45:49;;;;;;;7.77;3.10;;;;;;;16.29;100.00;96648.34;5052555;28;20248;-83
2022/10/13 11:48:50;;;;;;;5.40;2.87;;;;;;;16.26;100.00;96640.69;5044922;28;20241;-83